Nashua, MT (59248)

5:05 AM MST on March 04, 2015 (GMT -0700)
APRSWXNET Glasgow MT US | Change Station
CLOSE
Current Station
Personal Weather Station
Location: Glasgow, MT
Elevation: 2211 ft
Nearby Weather Stations
Active Advisory: Wind Chill Advisory

Elev 2211 ft 48.19 °N, 106.61 °W | Updated 31 minutes ago

Partly Cloudy
Partly Cloudy
-2 °F
Feels Like -2 °F
N
2
Wind Variable Wind from WNW
Gusts 3.0 mph

Today
High -- | Low -- °F
--% Chance of Precip.
Yesterday
High -- | Low -- °F
Precip. -- in
6:41 AM 5:54 PM
Waxing Gibbous, 99% visible
Pressure 30.40 in
Visibility 10.0 miles
Clouds Clear
Windchill -2 °F
Dew Point -11 °F
Humidity 64%
Rainfall 0.00 in
Snow Depth Not available.
UV 0 out of 12
Pollen .10 out of 12
Air Quality Not available.
Flu Activity Not available.
METAR KGGW 041153Z AUTO 29006KT 10SM CLR M19/M23 A3023 RMK AO2 SLP294 T11941233 11167 21200 53009

More Conditions Fewer Conditions

Pressure 30.40 in
Visibility 10.0 miles
Clouds Clear
Windchill -2 °F
Dew Point -11 °F
Humidity 64%
Rainfall 0.00 in
Snow Depth Not available.
UV 0 out of 12
Pollen .10 out of 12
Air Quality Not available.
Flu Activity Not available.
METAR KGGW 041153Z AUTO 29006KT 10SM CLR M19/M23 A3023 RMK AO2 SLP294 T11941233 11167 21200 53009

More Conditions Fewer Conditions

10-Day Weather Forecast

Almanac

Astronomy

Mar. 04, 2015 Rise Set
Actual Time
Civil Twilight
Nautical Twilight
Astronomical Twilight
Moon
Length of Visible Light
Length of Day
Tomorrow will be .
, % of the Moon is Illuminated

Today's Extremes

State Highs State Lows

Community

WunderPhotos

Upload Photos

1,802,436 photos uploaded!

WunderBlogs® & News

Nearby

Air Quality

  Air Quality AQ Index Pollutant
Not available.

Snow Depth

Station Depth Elevation

Earthquake Activity

City Distance Mag. Time & Date
Minimum magnitude displayed is 2.5.

Coastal Water Temperatures

Place Temperature

Nearby Weather Stations

Wind Chill Advisory
Statement as of 3:27 AM MST on March 04, 2015

... Wind Chill Advisory remains in effect until noon MST today...

A Wind Chill Advisory remains in effect until noon MST today.

* Timing... tonight through this morning.

* Wind chill values... 15 to 30 below.

* Main impacts... frostbite can occur within 30 minutes to
unprotected skin. Pets and Young livestock will be at risk
due to these harsh winter conditions.

Precautionary/preparedness actions...

Try to dress adequately. Be sure to wear layered light weight and
wind proof clothing... and wear a hat and mittens for protection
from the dangers of frostbite.

Pets and Newborn livestock should also be protected from these
conditions.